sensor_id;sensor_type;location;lat;lon;timestamp;P1;durP1;ratioP1;P2;durP2;ratioP2
33184;SDS011;19550;42.872;25.494;2024-01-15T00:00:54;81.55;;;32.80;;
33184;SDS011;19550;42.872;25.494;2024-01-15T00:03:20;53.47;;;23.65;;
33184;SDS011;19550;42.872;25.494;2024-01-15T00:05:47;47.22;;;22.05;;
33184;SDS011;19550;42.872;25.494;2024-01-15T00:08:14;94.45;;;38.88;;
33184;SDS011;19550;42.872;25.494;2024-01-15T00:10:41;50.38;;;22.85;;
33184;SDS011;19550;42.872;25.494;2024-01-15T00:13:08;59.97;;;27.15;;
33184;SDS011;19550;42.872;25.494;2024-01-15T00:15:34;44.03;;;19.50;;
33184;SDS011;19550;42.872;25.494;2024-01-15T00:18:03;43.30;;;19.88;;
33184;SDS011;19550;42.872;25.494;2024-01-15T00:20:29;42.45;;;19.30;;
33184;SDS011;19550;42.872;25.494;2024-01-15T00:22:56;50.55;;;21.58;;
33184;SDS011;19550;42.872;25.494;2024-01-15T00:25:23;56.20;;;25.70;;
33184;SDS011;19550;42.872;25.494;2024-01-15T00:27:50;46.30;;;20.25;;
33184;SDS011;19550;42.872;25.494;2024-01-15T00:30:17;34.58;;;16.33;;
33184;SDS011;19550;42.872;25.494;2024-01-15T00:32:43;71.13;;;27.83;;
33184;SDS011;19550;42.872;25.494;2024-01-15T00:35:11;82.55;;;31.85;;
33184;SDS011;19550;42.872;25.494;2024-01-15T00:37:39;87.35;;;35.05;;
33184;SDS011;19550;42.872;25.494;2024-01-15T00:40:06;67.90;;;30.67;;
33184;SDS011;19550;42.872;25.494;2024-01-15T00:42:34;69.85;;;31.85;;
33184;SDS011;19550;42.872;25.494;2024-01-15T00:45:01;63.55;;;28.85;;
33184;SDS011;19550;42.872;25.494;2024-01-15T00:47:27;61.63;;;26.52;;
33184;SDS011;19550;42.872;25.494;2024-01-15T00:49:54;60.47;;;26.15;;
33184;SDS011;19550;42.872;25.494;2024-01-15T00:52:22;50.65;;;21.38;;
33184;SDS011;19550;42.872;25.494;2024-01-15T00:54:49;45.63;;;19.85;;
33184;SDS011;19550;42.872;25.494;2024-01-15T00:57:16;43.00;;;20.35;;
33184;SDS011;19550;42.872;25.494;2024-01-15T00:59:44;48.45;;;22.27;;
33184;SDS011;19550;42.872;25.494;2024-01-15T01:02:11;71.35;;;28.60;;
33184;SDS011;19550;42.872;25.494;2024-01-15T01:04:38;88.82;;;30.30;;
33184;SDS011;19550;42.872;25.494;2024-01-15T01:07:04;38.30;;;16.50;;
33184;SDS011;19550;42.872;25.494;2024-01-15T01:09:32;45.47;;;18.40;;
33184;SDS011;19550;42.872;25.494;2024-01-15T01:11:59;44.17;;;17.73;;
33184;SDS011;19550;42.872;25.494;2024-01-15T01:14:26;43.22;;;20.90;;
33184;SDS011;19550;42.872;25.494;2024-01-15T01:16:53;38.15;;;16.33;;
33184;SDS011;19550;42.872;25.494;2024-01-15T01:19:20;33.70;;;14.15;;
33184;SDS011;19550;42.872;25.494;2024-01-15T01:21:46;32.17;;;15.32;;
33184;SDS011;19550;42.872;25.494;2024-01-15T01:24:14;29.80;;;14.20;;
33184;SDS011;19550;42.872;25.494;2024-01-15T01:26:42;80.53;;;31.75;;
33184;SDS011;19550;42.872;25.494;2024-01-15T01:29:11;55.45;;;24.52;;
33184;SDS011;19550;42.872;25.494;2024-01-15T01:31:42;44.53;;;21.38;;
33184;SDS011;19550;42.872;25.494;2024-01-15T01:34:09;47.53;;;23.42;;
33184;SDS011;19550;42.872;25.494;2024-01-15T01:36:36;41.13;;;24.30;;
33184;SDS011;19550;42.872;25.494;2024-01-15T01:39:02;43.03;;;18.20;;
33184;SDS011;19550;42.872;25.494;2024-01-15T01:41:29;30.83;;;14.82;;
33184;SDS011;19550;42.872;25.494;2024-01-15T01:43:57;44.42;;;20.95;;
33184;SDS011;19550;42.872;25.494;2024-01-15T01:46:24;65.05;;;25.08;;
33184;SDS011;19550;42.872;25.494;2024-01-15T01:48:53;95.07;;;28.08;;
33184;SDS011;19550;42.872;25.494;2024-01-15T01:51:22;152.73;;;40.83;;
33184;SDS011;19550;42.872;25.494;2024-01-15T01:53:50;87.17;;;28.07;;
33184;SDS011;19550;42.872;25.494;2024-01-15T01:56:18;49.72;;;19.67;;
33184;SDS011;19550;42.872;25.494;2024-01-15T01:58:45;36.83;;;17.95;;
33184;SDS011;19550;42.872;25.494;2024-01-15T02:01:14;34.63;;;17.30;;
33184;SDS011;19550;42.872;25.494;2024-01-15T02:03:42;29.83;;;13.75;;
33184;SDS011;19550;42.872;25.494;2024-01-15T02:06:09;30.23;;;13.38;;
33184;SDS011;19550;42.872;25.494;2024-01-15T02:08:36;41.55;;;16.05;;
33184;SDS011;19550;42.872;25.494;2024-01-15T02:11:03;35.13;;;15.95;;
33184;SDS011;19550;42.872;25.494;2024-01-15T02:13:30;40.40;;;18.55;;
33184;SDS011;19550;42.872;25.494;2024-01-15T02:15:57;32.70;;;13.70;;
33184;SDS011;19550;42.872;25.494;2024-01-15T02:18:25;26.77;;;12.68;;
33184;SDS011;19550;42.872;25.494;2024-01-15T02:20:52;30.45;;;13.20;;
33184;SDS011;19550;42.872;25.494;2024-01-15T02:23:20;37.53;;;15.85;;
33184;SDS011;19550;42.872;25.494;2024-01-15T02:25:47;32.08;;;15.05;;
33184;SDS011;19550;42.872;25.494;2024-01-15T02:28:14;37.00;;;18.13;;
33184;SDS011;19550;42.872;25.494;2024-01-15T02:30:43;27.17;;;13.35;;
33184;SDS011;19550;42.872;25.494;2024-01-15T02:33:10;30.38;;;14.68;;
33184;SDS011;19550;42.872;25.494;2024-01-15T02:35:38;32.17;;;14.65;;
33184;SDS011;19550;42.872;25.494;2024-01-15T02:38:05;34.28;;;14.32;;
33184;SDS011;19550;42.872;25.494;2024-01-15T02:40:34;29.13;;;13.40;;
33184;SDS011;19550;42.872;25.494;2024-01-15T02:43:01;31.92;;;15.95;;
33184;SDS011;19550;42.872;25.494;2024-01-15T02:45:28;30.40;;;14.10;;
33184;SDS011;19550;42.872;25.494;2024-01-15T02:47:55;27.98;;;12.95;;
33184;SDS011;19550;42.872;25.494;2024-01-15T02:50:22;33.40;;;14.50;;
33184;SDS011;19550;42.872;25.494;2024-01-15T02:52:49;33.15;;;14.25;;
33184;SDS011;19550;42.872;25.494;2024-01-15T02:55:18;28.23;;;12.57;;
33184;SDS011;19550;42.872;25.494;2024-01-15T02:57:47;31.60;;;14.38;;
33184;SDS011;19550;42.872;25.494;2024-01-15T03:00:14;26.38;;;12.10;;
33184;SDS011;19550;42.872;25.494;2024-01-15T03:02:41;25.23;;;12.38;;
33184;SDS011;19550;42.872;25.494;2024-01-15T03:05:10;23.98;;;11.73;;
33184;SDS011;19550;42.872;25.494;2024-01-15T03:07:37;30.58;;;13.18;;
33184;SDS011;19550;42.872;25.494;2024-01-15T03:10:04;26.80;;;13.40;;
33184;SDS011;19550;42.872;25.494;2024-01-15T03:12:34;49.05;;;19.52;;
33184;SDS011;19550;42.872;25.494;2024-01-15T03:15:04;41.25;;;17.05;;
33184;SDS011;19550;42.872;25.494;2024-01-15T03:17:31;40.08;;;18.70;;
33184;SDS011;19550;42.872;25.494;2024-01-15T03:19:58;35.50;;;15.85;;
33184;SDS011;19550;42.872;25.494;2024-01-15T03:22:25;28.10;;;13.13;;
33184;SDS011;19550;42.872;25.494;2024-01-15T03:24:52;33.00;;;13.30;;
33184;SDS011;19550;42.872;25.494;2024-01-15T03:27:19;30.38;;;12.65;;
33184;SDS011;19550;42.872;25.494;2024-01-15T03:29:46;21.45;;;10.82;;
33184;SDS011;19550;42.872;25.494;2024-01-15T03:32:14;28.42;;;11.95;;
33184;SDS011;19550;42.872;25.494;2024-01-15T03:34:41;26.30;;;12.20;;
33184;SDS011;19550;42.872;25.494;2024-01-15T03:37:08;29.00;;;11.98;;
33184;SDS011;19550;42.872;25.494;2024-01-15T03:39:36;23.13;;;11.25;;
33184;SDS011;19550;42.872;25.494;2024-01-15T03:42:03;26.13;;;11.15;;
33184;SDS011;19550;42.872;25.494;2024-01-15T03:44:30;24.73;;;11.27;;
33184;SDS011;19550;42.872;25.494;2024-01-15T03:46:57;24.98;;;10.80;;
33184;SDS011;19550;42.872;25.494;2024-01-15T03:49:25;25.00;;;11.07;;
33184;SDS011;19550;42.872;25.494;2024-01-15T03:51:52;24.33;;;10.50;;
33184;SDS011;19550;42.872;25.494;2024-01-15T03:54:19;21.63;;;9.50;;
33184;SDS011;19550;42.872;25.494;2024-01-15T03:56:46;27.30;;;10.93;;
33184;SDS011;19550;42.872;25.494;2024-01-15T03:59:11;21.45;;;9.50;;
33184;SDS011;19550;42.872;25.494;2024-01-15T04:01:39;27.88;;;12.15;;
33184;SDS011;19550;42.872;25.494;2024-01-15T04:04:06;25.27;;;10.65;;
33184;SDS011;19550;42.872;25.494;2024-01-15T04:06:38;29.92;;;12.98;;
33184;SDS011;19550;42.872;25.494;2024-01-15T04:09:05;31.40;;;12.30;;
33184;SDS011;19550;42.872;25.494;2024-01-15T04:11:31;33.45;;;14.57;;
33184;SDS011;19550;42.872;25.494;2024-01-15T04:13:58;32.85;;;12.57;;
33184;SDS011;19550;42.872;25.494;2024-01-15T04:16:25;32.72;;;13.70;;
33184;SDS011;19550;42.872;25.494;2024-01-15T04:18:52;36.00;;;15.70;;
33184;SDS011;19550;42.872;25.494;2024-01-15T04:21:19;42.47;;;19.13;;
33184;SDS011;19550;42.872;25.494;2024-01-15T04:23:47;68.63;;;25.95;;
33184;SDS011;19550;42.872;25.494;2024-01-15T04:26:14;101.60;;;33.33;;
33184;SDS011;19550;42.872;25.494;2024-01-15T04:28:41;43.38;;;17.10;;
33184;SDS011;19550;42.872;25.494;2024-01-15T04:31:07;185.30;;;51.47;;
33184;SDS011;19550;42.872;25.494;2024-01-15T04:33:34;86.30;;;32.58;;
33184;SDS011;19550;42.872;25.494;2024-01-15T04:36:01;145.73;;;47.92;;
33184;SDS011;19550;42.872;25.494;2024-01-15T04:38:28;250.88;;;65.53;;
33184;SDS011;19550;42.872;25.494;2024-01-15T04:40:56;149.95;;;44.92;;
33184;SDS011;19550;42.872;25.494;2024-01-15T04:43:23;184.25;;;50.55;;
33184;SDS011;19550;42.872;25.494;2024-01-15T04:45:50;38.28;;;15.75;;
33184;SDS011;19550;42.872;25.494;2024-01-15T04:48:17;77.55;;;28.33;;
33184;SDS011;19550;42.872;25.494;2024-01-15T04:50:43;54.03;;;20.67;;
33184;SDS011;19550;42.872;25.494;2024-01-15T04:53:11;31.55;;;14.10;;
33184;SDS011;19550;42.872;25.494;2024-01-15T04:55:38;29.63;;;13.27;;
33184;SDS011;19550;42.872;25.494;2024-01-15T04:58:06;37.40;;;15.68;;
33184;SDS011;19550;42.872;25.494;2024-01-15T05:00:33;32.45;;;14.18;;
33184;SDS011;19550;42.872;25.494;2024-01-15T05:03:00;28.42;;;12.77;;
33184;SDS011;19550;42.872;25.494;2024-01-15T05:05:27;33.85;;;15.27;;
33184;SDS011;19550;42.872;25.494;2024-01-15T05:07:57;45.83;;;19.48;;
33184;SDS011;19550;42.872;25.494;2024-01-15T05:10:23;44.00;;;18.25;;
33184;SDS011;19550;42.872;25.494;2024-01-15T05:12:50;51.83;;;21.38;;
33184;SDS011;19550;42.872;25.494;2024-01-15T05:15:18;48.13;;;20.17;;
33184;SDS011;19550;42.872;25.494;2024-01-15T05:17:45;50.80;;;21.55;;
33184;SDS011;19550;42.872;25.494;2024-01-15T05:20:12;46.55;;;20.90;;
33184;SDS011;19550;42.872;25.494;2024-01-15T05:22:39;36.10;;;15.75;;
33184;SDS011;19550;42.872;25.494;2024-01-15T05:25:06;33.97;;;14.40;;
33184;SDS011;19550;42.872;25.494;2024-01-15T05:27:33;41.15;;;19.13;;
33184;SDS011;19550;42.872;25.494;2024-01-15T05:29:59;31.58;;;14.38;;
33184;SDS011;19550;42.872;25.494;2024-01-15T05:32:28;34.90;;;14.13;;
33184;SDS011;19550;42.872;25.494;2024-01-15T05:34:55;32.97;;;14.37;;
33184;SDS011;19550;42.872;25.494;2024-01-15T05:37:21;28.33;;;12.52;;
33184;SDS011;19550;42.872;25.494;2024-01-15T05:39:48;27.55;;;11.63;;
33184;SDS011;19550;42.872;25.494;2024-01-15T05:42:15;31.20;;;14.20;;
33184;SDS011;19550;42.872;25.494;2024-01-15T05:44:42;32.15;;;13.80;;
33184;SDS011;19550;42.872;25.494;2024-01-15T05:47:08;33.80;;;15.38;;
33184;SDS011;19550;42.872;25.494;2024-01-15T05:49:37;45.58;;;17.83;;
33184;SDS011;19550;42.872;25.494;2024-01-15T05:52:04;54.00;;;23.47;;
33184;SDS011;19550;42.872;25.494;2024-01-15T05:54:31;48.53;;;21.08;;
33184;SDS011;19550;42.872;25.494;2024-01-15T05:56:58;43.38;;;18.17;;
33184;SDS011;19550;42.872;25.494;2024-01-15T05:59:27;50.53;;;18.77;;
33184;SDS011;19550;42.872;25.494;2024-01-15T06:01:56;23.05;;;11.43;;
33184;SDS011;19550;42.872;25.494;2024-01-15T06:04:24;35.35;;;13.98;;
33184;SDS011;19550;42.872;25.494;2024-01-15T06:06:52;25.80;;;11.18;;
33184;SDS011;19550;42.872;25.494;2024-01-15T06:09:19;28.48;;;12.48;;
33184;SDS011;19550;42.872;25.494;2024-01-15T06:11:46;54.97;;;22.92;;
33184;SDS011;19550;42.872;25.494;2024-01-15T06:14:12;43.28;;;18.33;;
33184;SDS011;19550;42.872;25.494;2024-01-15T06:16:39;30.02;;;13.43;;
33184;SDS011;19550;42.872;25.494;2024-01-15T06:19:06;44.92;;;19.73;;
33184;SDS011;19550;42.872;25.494;2024-01-15T06:21:33;48.80;;;22.67;;
33184;SDS011;19550;42.872;25.494;2024-01-15T06:24:01;72.05;;;28.77;;
33184;SDS011;19550;42.872;25.494;2024-01-15T06:26:28;89.97;;;38.55;;
33184;SDS011;19550;42.872;25.494;2024-01-15T06:28:55;117.72;;;48.85;;
33184;SDS011;19550;42.872;25.494;2024-01-15T06:31:22;127.43;;;53.17;;
33184;SDS011;19550;42.872;25.494;2024-01-15T06:33:48;94.22;;;41.70;;
33184;SDS011;19550;42.872;25.494;2024-01-15T06:36:16;85.28;;;37.28;;
33184;SDS011;19550;42.872;25.494;2024-01-15T06:38:43;91.70;;;41.10;;
33184;SDS011;19550;42.872;25.494;2024-01-15T06:41:11;86.15;;;38.90;;
33184;SDS011;19550;42.872;25.494;2024-01-15T06:43:38;87.93;;;38.03;;
33184;SDS011;19550;42.872;25.494;2024-01-15T06:46:05;92.70;;;39.75;;
33184;SDS011;19550;42.872;25.494;2024-01-15T06:48:32;86.72;;;39.42;;
33184;SDS011;19550;42.872;25.494;2024-01-15T06:50:59;62.42;;;27.48;;
33184;SDS011;19550;42.872;25.494;2024-01-15T06:53:25;41.80;;;19.92;;
33184;SDS011;19550;42.872;25.494;2024-01-15T06:55:52;71.75;;;32.28;;
33184;SDS011;19550;42.872;25.494;2024-01-15T06:58:20;116.07;;;49.65;;
33184;SDS011;19550;42.872;25.494;2024-01-15T07:00:47;298.90;;;127.55;;
33184;SDS011;19550;42.872;25.494;2024-01-15T07:03:14;193.48;;;84.25;;
33184;SDS011;19550;42.872;25.494;2024-01-15T07:05:41;201.98;;;91.82;;
33184;SDS011;19550;42.872;25.494;2024-01-15T07:08:08;275.17;;;119.28;;
33184;SDS011;19550;42.872;25.494;2024-01-15T07:10:35;280.88;;;119.78;;
33184;SDS011;19550;42.872;25.494;2024-01-15T07:13:02;258.27;;;120.68;;
33184;SDS011;19550;42.872;25.494;2024-01-15T07:15:31;199.63;;;91.82;;
33184;SDS011;19550;42.872;25.494;2024-01-15T07:17:58;197.57;;;100.25;;
33184;SDS011;19550;42.872;25.494;2024-01-15T07:20:25;206.68;;;94.10;;
33184;SDS011;19550;42.872;25.494;2024-01-15T07:22:52;228.25;;;101.95;;
33184;SDS011;19550;42.872;25.494;2024-01-15T07:25:18;229.02;;;109.15;;
33184;SDS011;19550;42.872;25.494;2024-01-15T07:27:45;272.17;;;132.88;;
33184;SDS011;19550;42.872;25.494;2024-01-15T07:30:13;273.35;;;137.02;;
33184;SDS011;19550;42.872;25.494;2024-01-15T07:32:41;236.88;;;108.05;;
33184;SDS011;19550;42.872;25.494;2024-01-15T07:35:08;218.55;;;98.95;;
33184;SDS011;19550;42.872;25.494;2024-01-15T07:37:35;212.52;;;99.88;;
33184;SDS011;19550;42.872;25.494;2024-01-15T07:40:02;206.80;;;94.88;;
33184;SDS011;19550;42.872;25.494;2024-01-15T07:42:30;143.20;;;68.22;;
33184;SDS011;19550;42.872;25.494;2024-01-15T07:44:57;72.20;;;33.15;;
33184;SDS011;19550;42.872;25.494;2024-01-15T07:47:24;195.93;;;90.85;;
33184;SDS011;19550;42.872;25.494;2024-01-15T07:49:53;208.05;;;94.20;;
33184;SDS011;19550;42.872;25.494;2024-01-15T07:52:20;197.55;;;95.38;;
33184;SDS011;19550;42.872;25.494;2024-01-15T07:54:47;274.50;;;127.10;;
33184;SDS011;19550;42.872;25.494;2024-01-15T07:57:14;207.40;;;102.78;;
33184;SDS011;19550;42.872;25.494;2024-01-15T07:59:41;170.18;;;86.82;;
33184;SDS011;19550;42.872;25.494;2024-01-15T08:02:08;120.88;;;63.75;;
33184;SDS011;19550;42.872;25.494;2024-01-15T08:04:36;116.20;;;61.22;;
33184;SDS011;19550;42.872;25.494;2024-01-15T08:07:04;133.15;;;77.35;;
33184;SDS011;19550;42.872;25.494;2024-01-15T08:09:32;114.18;;;59.38;;
33184;SDS011;19550;42.872;25.494;2024-01-15T08:11:59;117.47;;;63.72;;
33184;SDS011;19550;42.872;25.494;2024-01-15T08:14:27;120.35;;;66.10;;
33184;SDS011;19550;42.872;25.494;2024-01-15T08:16:54;127.78;;;68.97;;
33184;SDS011;19550;42.872;25.494;2024-01-15T08:19:21;121.70;;;69.45;;
33184;SDS011;19550;42.872;25.494;2024-01-15T08:21:48;135.23;;;72.10;;
33184;SDS011;19550;42.872;25.494;2024-01-15T08:24:16;144.50;;;81.95;;
33184;SDS011;19550;42.872;25.494;2024-01-15T08:26:43;162.68;;;95.78;;
33184;SDS011;19550;42.872;25.494;2024-01-15T08:29:10;141.27;;;82.85;;
33184;SDS011;19550;42.872;25.494;2024-01-15T08:31:37;126.20;;;71.82;;
33184;SDS011;19550;42.872;25.494;2024-01-15T08:34:04;143.45;;;77.15;;
33184;SDS011;19550;42.872;25.494;2024-01-15T08:36:31;168.73;;;100.55;;
33184;SDS011;19550;42.872;25.494;2024-01-15T08:39:00;187.57;;;108.68;;
33184;SDS011;19550;42.872;25.494;2024-01-15T08:41:30;200.32;;;119.90;;
33184;SDS011;19550;42.872;25.494;2024-01-15T08:43:57;150.93;;;85.15;;
33184;SDS011;19550;42.872;25.494;2024-01-15T08:46:24;128.95;;;74.80;;
33184;SDS011;19550;42.872;25.494;2024-01-15T08:48:52;219.88;;;115.70;;
33184;SDS011;19550;42.872;25.494;2024-01-15T08:51:19;163.95;;;90.55;;
33184;SDS011;19550;42.872;25.494;2024-01-15T08:53:46;147.77;;;84.72;;
33184;SDS011;19550;42.872;25.494;2024-01-15T08:56:13;138.82;;;81.30;;
33184;SDS011;19550;42.872;25.494;2024-01-15T08:58:41;152.65;;;89.88;;
33184;SDS011;19550;42.872;25.494;2024-01-15T09:01:08;210.75;;;110.78;;
33184;SDS011;19550;42.872;25.494;2024-01-15T09:03:34;232.50;;;151.63;;
33184;SDS011;19550;42.872;25.494;2024-01-15T09:06:02;149.25;;;85.15;;
33184;SDS011;19550;42.872;25.494;2024-01-15T09:08:29;176.02;;;109.63;;
33184;SDS011;19550;42.872;25.494;2024-01-15T09:10:56;132.63;;;80.97;;
33184;SDS011;19550;42.872;25.494;2024-01-15T09:13:23;111.88;;;62.20;;
33184;SDS011;19550;42.872;25.494;2024-01-15T09:15:51;126.28;;;71.28;;
33184;SDS011;19550;42.872;25.494;2024-01-15T09:18:18;111.32;;;66.22;;
33184;SDS011;19550;42.872;25.494;2024-01-15T09:20:45;114.97;;;69.35;;
33184;SDS011;19550;42.872;25.494;2024-01-15T09:23:12;105.15;;;66.38;;
33184;SDS011;19550;42.872;25.494;2024-01-15T09:25:39;119.65;;;73.18;;
33184;SDS011;19550;42.872;25.494;2024-01-15T09:28:05;126.07;;;72.93;;
33184;SDS011;19550;42.872;25.494;2024-01-15T09:30:33;132.07;;;75.72;;
33184;SDS011;19550;42.872;25.494;2024-01-15T09:33:01;159.52;;;92.18;;
33184;SDS011;19550;42.872;25.494;2024-01-15T09:35:28;178.85;;;98.72;;
33184;SDS011;19550;42.872;25.494;2024-01-15T09:37:55;194.10;;;103.05;;
33184;SDS011;19550;42.872;25.494;2024-01-15T09:40:22;180.88;;;102.93;;
33184;SDS011;19550;42.872;25.494;2024-01-15T09:42:51;144.57;;;80.95;;
33184;SDS011;19550;42.872;25.494;2024-01-15T09:45:18;133.75;;;76.00;;
33184;SDS011;19550;42.872;25.494;2024-01-15T09:47:45;103.15;;;51.15;;
33184;SDS011;19550;42.872;25.494;2024-01-15T09:50:14;86.90;;;50.03;;
33184;SDS011;19550;42.872;25.494;2024-01-15T09:52:41;65.43;;;34.55;;
33184;SDS011;19550;42.872;25.494;2024-01-15T09:55:09;97.35;;;58.67;;
33184;SDS011;19550;42.872;25.494;2024-01-15T09:57:37;46.33;;;21.75;;
33184;SDS011;19550;42.872;25.494;2024-01-15T10:00:06;40.13;;;25.30;;
33184;SDS011;19550;42.872;25.494;2024-01-15T10:02:35;29.80;;;16.95;;
33184;SDS011;19550;42.872;25.494;2024-01-15T10:05:03;21.17;;;12.68;;
33184;SDS011;19550;42.872;25.494;2024-01-15T10:07:32;20.08;;;13.70;;
33184;SDS011;19550;42.872;25.494;2024-01-15T10:10:01;15.48;;;10.18;;
33184;SDS011;19550;42.872;25.494;2024-01-15T10:12:28;28.38;;;13.98;;
33184;SDS011;19550;42.872;25.494;2024-01-15T10:14:55;28.25;;;13.77;;
33184;SDS011;19550;42.872;25.494;2024-01-15T10:17:23;22.73;;;13.60;;
33184;SDS011;19550;42.872;25.494;2024-01-15T10:19:50;19.90;;;11.32;;
33184;SDS011;19550;42.872;25.494;2024-01-15T10:22:17;23.38;;;13.20;;
33184;SDS011;19550;42.872;25.494;2024-01-15T10:24:45;16.85;;;9.25;;
33184;SDS011;19550;42.872;25.494;2024-01-15T10:27:12;22.65;;;11.05;;
33184;SDS011;19550;42.872;25.494;2024-01-15T10:29:40;31.92;;;15.38;;
33184;SDS011;19550;42.872;25.494;2024-01-15T10:32:08;31.67;;;15.52;;
33184;SDS011;19550;42.872;25.494;2024-01-15T10:34:37;19.35;;;11.85;;
33184;SDS011;19550;42.872;25.494;2024-01-15T10:37:04;62.85;;;27.02;;
33184;SDS011;19550;42.872;25.494;2024-01-15T10:39:34;38.88;;;17.70;;
33184;SDS011;19550;42.872;25.494;2024-01-15T10:42:02;19.33;;;9.65;;
33184;SDS011;19550;42.872;25.494;2024-01-15T10:44:30;15.70;;;7.80;;
33184;SDS011;19550;42.872;25.494;2024-01-15T10:46:57;61.58;;;27.65;;
33184;SDS011;19550;42.872;25.494;2024-01-15T10:49:24;23.83;;;11.82;;
33184;SDS011;19550;42.872;25.494;2024-01-15T10:51:53;9.77;;;6.07;;
33184;SDS011;19550;42.872;25.494;2024-01-15T10:54:20;11.00;;;6.03;;
33184;SDS011;19550;42.872;25.494;2024-01-15T10:56:49;21.13;;;13.00;;
33184;SDS011;19550;42.872;25.494;2024-01-15T10:59:19;21.75;;;11.52;;
33184;SDS011;19550;42.872;25.494;2024-01-15T11:01:47;20.45;;;11.35;;
33184;SDS011;19550;42.872;25.494;2024-01-15T11:04:15;20.08;;;12.00;;
33184;SDS011;19550;42.872;25.494;2024-01-15T11:06:43;22.08;;;9.77;;
33184;SDS011;19550;42.872;25.494;2024-01-15T11:09:11;17.90;;;11.48;;
33184;SDS011;19550;42.872;25.494;2024-01-15T11:11:40;22.85;;;13.63;;
33184;SDS011;19550;42.872;25.494;2024-01-15T11:14:08;71.28;;;35.20;;
33184;SDS011;19550;42.872;25.494;2024-01-15T11:19:24;41.90;;;20.75;;
33184;SDS011;19550;42.872;25.494;2024-01-15T11:21:51;48.80;;;29.00;;
33184;SDS011;19550;42.872;25.494;2024-01-15T11:24:35;35.58;;;18.88;;
33184;SDS011;19550;42.872;25.494;2024-01-15T11:27:03;38.40;;;22.45;;
33184;SDS011;19550;42.872;25.494;2024-01-15T11:29:31;35.85;;;21.15;;
33184;SDS011;19550;42.872;25.494;2024-01-15T11:32:01;33.08;;;17.75;;
33184;SDS011;19550;42.872;25.494;2024-01-15T11:34:49;23.17;;;12.05;;
33184;SDS011;19550;42.872;25.494;2024-01-15T11:37:17;32.95;;;17.05;;
33184;SDS011;19550;42.872;25.494;2024-01-15T11:39:47;47.03;;;17.83;;
33184;SDS011;19550;42.872;25.494;2024-01-15T11:42:14;27.27;;;15.40;;
33184;SDS011;19550;42.872;25.494;2024-01-15T11:44:43;34.97;;;17.25;;
33184;SDS011;19550;42.872;25.494;2024-01-15T11:47:12;12.13;;;6.60;;
33184;SDS011;19550;42.872;25.494;2024-01-15T11:52:30;18.17;;;8.68;;
33184;SDS011;19550;42.872;25.494;2024-01-15T11:55:00;21.15;;;11.20;;
33184;SDS011;19550;42.872;25.494;2024-01-15T11:57:33;13.02;;;6.50;;
33184;SDS011;19550;42.872;25.494;2024-01-15T12:00:07;7.68;;;5.22;;
33184;SDS011;19550;42.872;25.494;2024-01-15T12:02:38;7.57;;;4.90;;
33184;SDS011;19550;42.872;25.494;2024-01-15T12:05:05;7.75;;;5.32;;
33184;SDS011;19550;42.872;25.494;2024-01-15T12:07:33;12.05;;;7.50;;
33184;SDS011;19550;42.872;25.494;2024-01-15T12:10:00;10.38;;;6.60;;
33184;SDS011;19550;42.872;25.494;2024-01-15T12:12:29;10.65;;;6.85;;
33184;SDS011;19550;42.872;25.494;2024-01-15T12:15:06;11.35;;;6.22;;
33184;SDS011;19550;42.872;25.494;2024-01-15T12:17:34;10.95;;;6.97;;
33184;SDS011;19550;42.872;25.494;2024-01-15T12:20:03;24.67;;;8.80;;
33184;SDS011;19550;42.872;25.494;2024-01-15T12:22:31;7.75;;;4.78;;
33184;SDS011;19550;42.872;25.494;2024-01-15T12:24:58;7.78;;;5.32;;
33184;SDS011;19550;42.872;25.494;2024-01-15T12:27:25;8.15;;;5.75;;
33184;SDS011;19550;42.872;25.494;2024-01-15T12:29:52;15.05;;;7.63;;
33184;SDS011;19550;42.872;25.494;2024-01-15T12:32:19;9.70;;;5.18;;
33184;SDS011;19550;42.872;25.494;2024-01-15T12:34:46;7.00;;;4.70;;
33184;SDS011;19550;42.872;25.494;2024-01-15T12:37:17;13.82;;;7.60;;
33184;SDS011;19550;42.872;25.494;2024-01-15T12:39:44;10.38;;;6.55;;
33184;SDS011;19550;42.872;25.494;2024-01-15T12:42:11;11.63;;;5.57;;
33184;SDS011;19550;42.872;25.494;2024-01-15T12:44:38;5.30;;;3.80;;
33184;SDS011;19550;42.872;25.494;2024-01-15T12:47:06;8.18;;;5.05;;
33184;SDS011;19550;42.872;25.494;2024-01-15T12:49:32;8.55;;;5.88;;
33184;SDS011;19550;42.872;25.494;2024-01-15T12:51:59;8.23;;;3.58;;
33184;SDS011;19550;42.872;25.494;2024-01-15T12:54:27;17.48;;;10.95;;
33184;SDS011;19550;42.872;25.494;2024-01-15T12:56:54;9.93;;;6.60;;
33184;SDS011;19550;42.872;25.494;2024-01-15T12:59:21;17.20;;;11.88;;
33184;SDS011;19550;42.872;25.494;2024-01-15T13:01:48;103.30;;;59.50;;
33184;SDS011;19550;42.872;25.494;2024-01-15T13:04:20;52.28;;;30.00;;
33184;SDS011;19550;42.872;25.494;2024-01-15T13:06:48;32.78;;;18.30;;
33184;SDS011;19550;42.872;25.494;2024-01-15T13:09:15;37.03;;;20.30;;
33184;SDS011;19550;42.872;25.494;2024-01-15T13:11:43;30.38;;;16.33;;
33184;SDS011;19550;42.872;25.494;2024-01-15T13:14:10;26.58;;;14.93;;
33184;SDS011;19550;42.872;25.494;2024-01-15T13:16:38;22.98;;;10.57;;
33184;SDS011;19550;42.872;25.494;2024-01-15T13:19:06;36.00;;;22.58;;
33184;SDS011;19550;42.872;25.494;2024-01-15T13:21:34;18.45;;;8.68;;
33184;SDS011;19550;42.872;25.494;2024-01-15T13:24:01;21.00;;;12.15;;
33184;SDS011;19550;42.872;25.494;2024-01-15T13:26:28;15.68;;;10.27;;
33184;SDS011;19550;42.872;25.494;2024-01-15T13:28:56;39.95;;;26.25;;
33184;SDS011;19550;42.872;25.494;2024-01-15T13:31:23;28.25;;;14.95;;
33184;SDS011;19550;42.872;25.494;2024-01-15T13:33:50;27.38;;;15.85;;
33184;SDS011;19550;42.872;25.494;2024-01-15T13:36:17;25.80;;;13.55;;
33184;SDS011;19550;42.872;25.494;2024-01-15T13:38:44;23.48;;;12.65;;
33184;SDS011;19550;42.872;25.494;2024-01-15T13:41:10;25.60;;;13.90;;
33184;SDS011;19550;42.872;25.494;2024-01-15T13:43:37;62.92;;;24.27;;
33184;SDS011;19550;42.872;25.494;2024-01-15T13:46:06;55.58;;;21.02;;
33184;SDS011;19550;42.872;25.494;2024-01-15T13:48:32;126.00;;;37.17;;
33184;SDS011;19550;42.872;25.494;2024-01-15T13:50:59;92.63;;;33.40;;
33184;SDS011;19550;42.872;25.494;2024-01-15T13:53:26;146.27;;;43.13;;
33184;SDS011;19550;42.872;25.494;2024-01-15T13:55:53;165.80;;;44.53;;
33184;SDS011;19550;42.872;25.494;2024-01-15T13:58:19;149.45;;;38.75;;
33184;SDS011;19550;42.872;25.494;2024-01-15T14:00:46;79.10;;;26.52;;
33184;SDS011;19550;42.872;25.494;2024-01-15T14:03:15;89.50;;;29.48;;
33184;SDS011;19550;42.872;25.494;2024-01-15T14:05:42;135.85;;;42.95;;
33184;SDS011;19550;42.872;25.494;2024-01-15T14:08:09;98.15;;;32.22;;
33184;SDS011;19550;42.872;25.494;2024-01-15T14:10:36;55.88;;;22.98;;
33184;SDS011;19550;42.872;25.494;2024-01-15T14:13:03;40.03;;;18.55;;